createdAt,value
2023-05-12T00:02:04.398Z,14.90
2023-05-12T00:04:30.983Z,14.87
2023-05-12T00:06:57.521Z,14.88
2023-05-12T00:09:25.942Z,14.87
2023-05-12T00:11:52.489Z,14.81
2023-05-12T00:14:22.290Z,14.87
2023-05-12T00:16:52.384Z,14.89
2023-05-12T00:19:20.183Z,14.83
2023-05-12T00:21:52.737Z,14.82
2023-05-12T00:24:22.368Z,14.50
2023-05-12T00:26:51.749Z,14.76
2023-05-12T00:29:25.483Z,14.75
2023-05-12T00:32:08.347Z,14.74
2023-05-12T00:34:34.913Z,14.75
2023-05-12T00:37:04.307Z,14.73
2023-05-12T00:39:32.977Z,14.73
2023-05-12T00:41:59.804Z,14.71
2023-05-12T00:44:29.721Z,14.69
2023-05-12T00:46:56.329Z,14.75
2023-05-12T00:49:22.928Z,14.69
2023-05-12T00:51:55.958Z,14.74
2023-05-12T00:54:29.227Z,14.75
2023-05-12T00:56:55.774Z,14.72
2023-05-12T00:59:25.292Z,14.65
2023-05-12T01:01:52.516Z,14.65
2023-05-12T01:04:19.048Z,14.70
2023-05-12T01:06:48.805Z,14.71
2023-05-12T01:11:56.199Z,14.77
2023-05-12T01:14:28.535Z,14.84
2023-05-12T01:17:00.186Z,14.85
2023-05-12T01:19:34.609Z,14.80
2023-05-12T01:22:01.356Z,14.80
2023-05-12T01:24:29.423Z,14.84
2023-05-12T01:26:55.927Z,14.77
2023-05-12T01:29:23.535Z,14.71
2023-05-12T01:31:56.280Z,14.78
2023-05-12T01:34:38.136Z,14.75
2023-05-12T01:37:13.853Z,14.75
2023-05-12T01:39:47.639Z,14.79
2023-05-12T01:42:20.093Z,14.75
2023-05-12T01:44:46.808Z,14.73
2023-05-12T01:47:16.253Z,14.69
2023-05-12T01:49:51.964Z,14.64
2023-05-12T01:52:21.625Z,14.59
2023-05-12T01:54:48.185Z,14.55
2023-05-12T01:57:20.672Z,14.52
2023-05-12T01:59:47.214Z,14.44
2023-05-12T02:02:13.768Z,14.41
2023-05-12T02:04:41.540Z,14.45
2023-05-12T02:07:08.095Z,14.45
2023-05-12T02:09:34.591Z,14.45
2023-05-12T02:12:02.449Z,14.41
2023-05-12T02:14:29.067Z,14.44
2023-05-12T02:16:56.691Z,14.35
2023-05-12T02:19:23.230Z,14.34
2023-05-12T02:21:52.855Z,13.97
2023-05-12T02:24:21.333Z,14.27
2023-05-12T02:26:47.866Z,14.22
2023-05-12T02:29:16.696Z,14.20
2023-05-12T02:31:46.336Z,14.20
2023-05-12T02:34:12.911Z,14.24
2023-05-12T02:36:39.430Z,14.30
2023-05-12T02:39:08.586Z,13.94
2023-05-12T02:41:35.178Z,14.41
2023-05-12T02:44:03.922Z,14.45
2023-05-12T02:46:32.561Z,14.40
2023-05-12T02:48:59.142Z,14.39
2023-05-12T02:51:30.326Z,14.13
2023-05-12T02:53:56.920Z,14.49
2023-05-12T02:56:29.128Z,14.46
2023-05-12T02:58:58.810Z,14.47
2023-05-12T03:01:25.435Z,14.58
2023-05-12T03:03:52.117Z,14.47
2023-05-12T03:06:18.774Z,14.49
2023-05-12T03:08:45.442Z,14.50
2023-05-12T03:11:12.015Z,14.55
2023-05-12T03:13:38.592Z,14.56
2023-05-12T03:16:08.187Z,14.63
2023-05-12T03:18:39.152Z,14.55
2023-05-12T03:21:09.150Z,14.50
2023-05-12T03:23:36.922Z,14.44
2023-05-12T03:26:03.466Z,14.48
2023-05-12T03:28:30.067Z,14.45
2023-05-12T03:30:56.800Z,14.49
2023-05-12T03:33:23.385Z,14.14
2023-05-12T03:35:50.000Z,14.47
2023-05-12T03:38:16.503Z,14.46
2023-05-12T03:40:43.696Z,14.48
2023-05-12T03:43:10.213Z,14.45
2023-05-12T03:45:36.756Z,14.45
2023-05-12T03:48:06.233Z,14.45
2023-05-12T03:50:33.338Z,14.41
2023-05-12T03:53:09.137Z,14.21
2023-05-12T03:58:16.931Z,14.44
2023-05-12T04:00:44.300Z,14.48
2023-05-12T04:03:11.026Z,14.50
2023-05-12T04:05:39.563Z,14.44
2023-05-12T04:08:06.401Z,14.50
2023-05-12T04:10:33.024Z,14.47
2023-05-12T04:12:59.551Z,14.10
2023-05-12T04:15:28.042Z,14.40
2023-05-12T04:17:54.548Z,14.44
2023-05-12T04:20:21.510Z,14.43
2023-05-12T04:22:48.165Z,14.37
2023-05-12T04:25:18.799Z,14.39
2023-05-12T04:27:46.482Z,14.36
2023-05-12T04:30:13.218Z,14.36
2023-05-12T04:32:39.847Z,14.32
2023-05-12T04:35:06.547Z,14.32
2023-05-12T04:37:33.084Z,14.30
2023-05-12T04:39:59.726Z,14.31
2023-05-12T04:42:26.447Z,14.27
2023-05-12T04:44:53.260Z,14.26
2023-05-12T04:47:19.840Z,14.38
2023-05-12T04:49:47.169Z,14.15
2023-05-12T04:52:13.651Z,14.55
2023-05-12T04:54:40.059Z,14.56
2023-05-12T04:57:06.517Z,14.51
2023-05-12T04:59:33.145Z,14.56
2023-05-12T05:01:59.721Z,14.55
2023-05-12T05:04:26.497Z,14.59
2023-05-12T05:06:53.071Z,14.62
2023-05-12T05:09:22.716Z,14.67
2023-05-12T05:11:49.249Z,14.73
2023-05-12T05:14:18.654Z,14.77
2023-05-12T05:16:46.414Z,14.83
2023-05-12T05:19:21.814Z,14.86
2023-05-12T05:21:58.871Z,14.90
2023-05-12T05:24:26.351Z,14.93
2023-05-12T05:26:52.821Z,14.97
2023-05-12T05:29:19.325Z,15.02
2023-05-12T05:31:49.197Z,14.84
2023-05-12T05:34:20.997Z,15.17
2023-05-12T05:36:50.721Z,15.27
2023-05-12T05:39:17.359Z,15.49
2023-05-12T05:41:44.034Z,15.39
2023-05-12T05:44:11.037Z,15.37
2023-05-12T05:46:37.635Z,15.29
2023-05-12T05:49:04.486Z,15.39
2023-05-12T05:51:31.408Z,15.47
2023-05-12T05:54:01.306Z,15.44
2023-05-12T05:56:28.473Z,15.48
2023-05-12T05:58:55.058Z,15.54
2023-05-12T06:01:21.595Z,15.58
2023-05-12T06:03:51.743Z,15.60
2023-05-12T06:06:21.634Z,15.60
2023-05-12T06:08:48.064Z,15.66
2023-05-12T06:11:15.904Z,15.69
2023-05-12T06:13:43.761Z,15.75
2023-05-12T06:16:10.726Z,15.81
2023-05-12T06:18:40.986Z,15.85
2023-05-12T06:21:14.144Z,15.78
2023-05-12T06:23:40.760Z,15.76
2023-05-12T06:26:07.971Z,15.70
2023-05-12T06:28:34.504Z,15.67
2023-05-12T06:31:01.130Z,15.69
2023-05-12T06:33:30.217Z,15.71
2023-05-12T06:36:16.088Z,15.42
2023-05-12T06:38:43.336Z,15.75
2023-05-12T06:41:11.003Z,15.76
2023-05-12T06:43:58.392Z,15.55
2023-05-12T06:46:25.071Z,15.94
2023-05-12T06:48:52.053Z,15.86
2023-05-12T06:51:21.467Z,15.87
2023-05-12T06:53:48.065Z,15.90
2023-05-12T06:56:20.556Z,15.83
2023-05-12T06:58:48.291Z,15.46
2023-05-12T07:01:17.308Z,15.82
2023-05-12T07:03:44.751Z,15.83
2023-05-12T07:06:14.276Z,15.87
2023-05-12T07:08:40.914Z,16.00
2023-05-12T07:11:07.553Z,16.06
2023-05-12T07:13:35.862Z,16.15
2023-05-12T07:16:03.192Z,16.29
2023-05-12T07:18:29.744Z,16.47
2023-05-12T07:20:59.504Z,16.54
2023-05-12T07:23:26.302Z,16.61
2023-05-12T07:25:52.864Z,16.70
2023-05-12T07:28:21.066Z,16.74
2023-05-12T07:30:47.666Z,16.76
2023-05-12T07:33:17.911Z,16.48
2023-05-12T07:35:44.910Z,16.65
2023-05-12T07:38:11.589Z,16.76
2023-05-12T07:40:40.890Z,16.74
2023-05-12T07:43:08.125Z,16.79
2023-05-12T07:45:34.603Z,16.83
2023-05-12T07:48:01.245Z,16.66
2023-05-12T07:50:27.884Z,16.82
2023-05-12T07:52:54.587Z,16.79
2023-05-12T07:55:22.048Z,16.77
2023-05-12T07:57:56.211Z,16.79
2023-05-12T08:00:22.874Z,16.78
2023-05-12T08:02:49.688Z,16.91
2023-05-12T08:05:16.487Z,16.93
2023-05-12T08:07:44.133Z,17.14
2023-05-12T08:10:15.488Z,17.21
2023-05-12T08:12:42.295Z,17.19
2023-05-12T08:15:14.190Z,17.28
2023-05-12T08:17:43.735Z,17.45
2023-05-12T08:20:11.756Z,17.64
2023-05-12T08:22:39.974Z,17.58
2023-05-12T08:25:08.365Z,17.60
2023-05-12T08:27:36.251Z,17.71
2023-05-12T08:30:02.794Z,17.80
2023-05-12T08:32:29.418Z,17.91
2023-05-12T08:34:56.056Z,18.02
2023-05-12T08:37:22.773Z,18.17
2023-05-12T08:39:49.379Z,18.11
2023-05-12T08:42:26.056Z,18.46
2023-05-12T08:44:53.724Z,18.43
2023-05-12T08:47:22.759Z,18.50
2023-05-12T08:49:56.300Z,18.49
2023-05-12T08:52:23.598Z,18.57
2023-05-12T08:54:56.298Z,18.75
2023-05-12T08:57:23.480Z,18.77
2023-05-12T08:59:56.920Z,18.98
2023-05-12T09:02:24.743Z,19.06
2023-05-12T09:04:52.382Z,18.98
2023-05-12T09:07:21.968Z,18.90
2023-05-12T09:09:52.876Z,18.89
2023-05-12T09:12:19.762Z,18.82
2023-05-12T09:14:49.597Z,18.80
2023-05-12T09:17:16.194Z,18.80
2023-05-12T09:19:48.110Z,18.91
2023-05-12T09:22:14.832Z,19.14
2023-05-12T09:24:43.409Z,19.28
2023-05-12T09:27:10.725Z,19.35
2023-05-12T09:32:14.781Z,19.59
2023-05-12T09:34:46.784Z,19.65
2023-05-12T09:37:15.532Z,20.00
2023-05-12T09:39:47.258Z,19.64
2023-05-12T09:42:16.887Z,20.07
2023-05-12T09:44:47.112Z,19.70
2023-05-12T09:47:15.579Z,20.14
2023-05-12T09:49:46.180Z,20.04
2023-05-12T09:52:12.805Z,20.18
2023-05-12T09:54:39.747Z,20.17
2023-05-12T09:57:06.746Z,20.12
2023-05-12T09:59:44.107Z,20.26
2023-05-12T10:02:13.891Z,20.53
2023-05-12T10:04:43.489Z,20.50
2023-05-12T10:07:12.047Z,20.67
2023-05-12T10:09:42.224Z,20.85
2023-05-12T10:12:09.336Z,20.66
2023-05-12T10:14:37.480Z,20.68
2023-05-12T10:17:05.627Z,20.55
2023-05-12T10:19:34.840Z,20.55
2023-05-12T10:22:01.856Z,20.56
2023-05-12T10:24:31.732Z,20.74
2023-05-12T10:26:59.689Z,20.74
2023-05-12T10:29:42.478Z,20.69
2023-05-12T10:32:11.036Z,20.55
2023-05-12T10:34:40.857Z,20.66
2023-05-12T10:37:11.217Z,20.66
2023-05-12T10:39:46.479Z,20.87
2023-05-12T10:42:17.003Z,20.48
2023-05-12T10:44:51.116Z,20.67
2023-05-12T10:47:20.558Z,20.65
2023-05-12T10:49:47.300Z,20.62
2023-05-12T10:52:19.556Z,20.86
2023-05-12T10:54:47.787Z,20.79
2023-05-12T10:57:18.405Z,20.76
2023-05-12T10:59:54.361Z,20.75
2023-05-12T11:02:27.422Z,20.76
2023-05-12T11:05:13.189Z,20.81
2023-05-12T11:07:42.256Z,20.91
2023-05-12T11:10:14.942Z,20.72
2023-05-12T11:12:43.893Z,20.90
2023-05-12T11:15:17.802Z,20.81
2023-05-12T11:17:49.366Z,21.04
2023-05-12T11:20:23.884Z,21.26
2023-05-12T11:22:50.792Z,21.13
2023-05-12T11:25:17.675Z,21.06
2023-05-12T11:27:56.986Z,21.24
2023-05-12T11:30:24.230Z,21.51
2023-05-12T11:33:04.404Z,21.84
2023-05-12T11:35:36.088Z,21.80
2023-05-12T11:38:20.239Z,21.84
2023-05-12T11:40:52.383Z,21.90
2023-05-12T11:43:22.794Z,21.88
2023-05-12T11:45:49.513Z,21.65
2023-05-12T11:48:18.972Z,21.53
2023-05-12T11:50:49.026Z,21.40
2023-05-12T11:53:23.933Z,21.45
2023-05-12T11:55:53.659Z,21.15
2023-05-12T11:58:23.666Z,21.00
2023-05-12T12:00:55.770Z,20.70
2023-05-12T12:03:22.694Z,20.67
2023-05-12T12:06:11.649Z,20.50
2023-05-12T12:08:40.935Z,19.85
2023-05-12T12:11:08.564Z,19.39
2023-05-12T12:13:35.184Z,18.87
2023-05-12T12:16:04.093Z,18.52
2023-05-12T12:18:31.318Z,18.04
2023-05-12T12:21:00.034Z,17.63
2023-05-12T12:23:26.721Z,17.35
2023-05-12T12:25:53.382Z,16.94
2023-05-12T12:28:21.146Z,16.40
2023-05-12T12:30:48.093Z,15.77
2023-05-12T12:33:14.721Z,15.32
2023-05-12T12:35:50.086Z,14.91
2023-05-12T12:38:16.679Z,14.46
2023-05-12T12:40:43.198Z,14.14
2023-05-12T12:43:12.852Z,13.93
2023-05-12T12:45:39.447Z,13.67
2023-05-12T12:48:09.001Z,13.60
2023-05-12T12:50:38.654Z,13.73
2023-05-12T12:53:05.554Z,13.84
2023-05-12T12:55:32.278Z,13.81
2023-05-12T12:57:58.898Z,13.82
2023-05-12T13:00:29.848Z,13.59
2023-05-12T13:02:59.207Z,13.99
2023-05-12T13:05:25.875Z,13.99
2023-05-12T13:07:52.462Z,14.01
2023-05-12T13:10:19.056Z,14.03
2023-05-12T13:12:45.590Z,14.07
2023-05-12T13:15:12.319Z,14.19
2023-05-12T13:17:39.019Z,14.31
2023-05-12T13:20:09.242Z,14.31
2023-05-12T13:22:42.011Z,14.21
2023-05-12T13:25:08.962Z,14.19
2023-05-12T13:27:39.754Z,14.19
2023-05-12T13:30:07.409Z,14.21
2023-05-12T13:32:34.888Z,14.15
2023-05-12T13:35:02.686Z,14.15
2023-05-12T13:37:29.305Z,14.17
2023-05-12T13:39:58.813Z,14.10
2023-05-12T13:42:25.534Z,14.20
2023-05-12T13:44:52.150Z,14.23
2023-05-12T13:47:19.163Z,14.20
2023-05-12T13:49:45.911Z,14.22
2023-05-12T13:52:12.433Z,14.24
2023-05-12T13:54:40.420Z,14.29
2023-05-12T13:57:07.670Z,14.30
2023-05-12T13:59:34.667Z,14.26
2023-05-12T14:02:02.385Z,14.23
2023-05-12T14:04:33.478Z,13.92
2023-05-12T14:07:00.016Z,14.24
2023-05-12T14:09:30.924Z,14.02
2023-05-12T14:11:58.163Z,14.38
2023-05-12T14:14:24.729Z,14.49
2023-05-12T14:16:51.330Z,14.50
2023-05-12T14:19:18.128Z,14.62
2023-05-12T14:21:47.090Z,14.61
2023-05-12T14:24:15.906Z,14.61
2023-05-12T14:26:44.846Z,14.68
2023-05-12T14:29:11.360Z,14.70
2023-05-12T14:31:37.910Z,14.69
2023-05-12T14:34:09.374Z,14.49
2023-05-12T14:36:35.941Z,14.88
2023-05-12T14:39:02.609Z,14.95
2023-05-12T14:41:29.185Z,15.00
2023-05-12T14:43:55.663Z,15.11
2023-05-12T14:46:22.477Z,15.24
2023-05-12T14:48:49.133Z,15.26
2023-05-12T14:51:15.730Z,15.29
2023-05-12T14:53:42.614Z,15.39
2023-05-12T14:56:09.249Z,15.42
2023-05-12T14:58:35.874Z,15.49
2023-05-12T15:01:02.939Z,15.62
2023-05-12T15:03:30.226Z,15.72
2023-05-12T15:06:06.630Z,15.78
2023-05-12T15:08:34.164Z,15.87
2023-05-12T15:11:00.834Z,15.94
2023-05-12T15:13:27.395Z,15.98
2023-05-12T15:15:58.887Z,15.76
2023-05-12T15:18:25.543Z,16.10
2023-05-12T15:20:52.212Z,16.14
2023-05-12T15:23:18.860Z,16.25
2023-05-12T15:25:45.480Z,16.34
2023-05-12T15:28:15.289Z,16.38
2023-05-12T15:30:41.927Z,16.52
2023-05-12T15:33:08.598Z,16.56
2023-05-12T15:35:38.465Z,16.58
2023-05-12T15:38:06.514Z,16.64
2023-05-12T15:40:35.700Z,16.67
2023-05-12T15:43:06.868Z,16.16
2023-05-12T15:45:37.338Z,16.86
2023-05-12T15:48:06.130Z,16.88
2023-05-12T15:50:33.857Z,16.90
2023-05-12T15:53:00.536Z,16.91
2023-05-12T15:55:27.075Z,17.01
2023-05-12T15:57:55.787Z,17.02
2023-05-12T16:00:25.665Z,17.18
2023-05-12T16:02:52.319Z,17.27
2023-05-12T16:05:19.081Z,17.12
2023-05-12T16:07:48.074Z,17.79
2023-05-12T16:10:14.619Z,18.38
2023-05-12T16:12:41.325Z,18.57
2023-05-12T16:15:08.158Z,18.50
2023-05-12T16:17:34.747Z,18.43
2023-05-12T16:20:02.279Z,18.29
2023-05-12T16:22:31.289Z,18.14
2023-05-12T16:24:59.298Z,18.07
2023-05-12T16:27:25.825Z,17.89
2023-05-12T16:29:53.712Z,17.73
2023-05-12T16:32:20.626Z,17.72
2023-05-12T16:38:15.533Z,17.40
2023-05-12T16:40:42.256Z,17.41
2023-05-12T16:43:08.973Z,17.41
2023-05-12T16:45:38.171Z,17.37
2023-05-12T16:48:05.128Z,17.21
2023-05-12T16:50:35.384Z,17.11
2023-05-12T16:53:02.619Z,17.20
2023-05-12T16:55:29.254Z,17.11
2023-05-12T16:57:55.858Z,17.14
2023-05-12T17:03:09.204Z,16.82
2023-05-12T17:05:37.162Z,16.74
2023-05-12T17:08:04.412Z,16.66
2023-05-12T17:10:31.042Z,16.63
2023-05-12T17:12:58.603Z,16.64
2023-05-12T17:15:25.529Z,16.61
2023-05-12T17:17:52.797Z,16.67
2023-05-12T17:20:19.570Z,16.65
2023-05-12T17:22:50.396Z,16.65
2023-05-12T17:25:21.086Z,16.73
2023-05-12T17:27:48.407Z,16.77
2023-05-12T17:30:15.174Z,17.01
2023-05-12T17:32:41.909Z,16.94
2023-05-12T17:35:09.203Z,16.82
2023-05-12T17:37:36.714Z,16.82
2023-05-12T17:40:05.998Z,16.81
2023-05-12T17:42:32.782Z,16.76
2023-05-12T17:45:09.853Z,16.79
2023-05-12T17:47:38.022Z,16.87
2023-05-12T17:50:06.749Z,16.76
2023-05-12T17:52:41.130Z,16.72
2023-05-12T17:55:08.490Z,16.67
2023-05-12T17:57:35.225Z,16.58
2023-05-12T18:00:10.869Z,16.55
2023-05-12T18:02:45.818Z,16.29
2023-05-12T18:05:12.846Z,16.63
2023-05-12T18:07:39.792Z,16.65
2023-05-12T18:10:07.341Z,16.58
2023-05-12T18:12:34.226Z,16.53
2023-05-12T18:15:06.626Z,16.39
2023-05-12T18:17:33.367Z,16.41
2023-05-12T18:20:00.205Z,16.40
2023-05-12T18:22:26.900Z,16.32
2023-05-12T18:24:53.793Z,16.32
2023-05-12T18:27:29.798Z,16.07
2023-05-12T18:29:57.073Z,16.21
2023-05-12T18:32:25.032Z,16.24
2023-05-12T18:34:53.168Z,16.20
2023-05-12T18:37:23.961Z,16.27
2023-05-12T18:40:01.448Z,16.15
2023-05-12T18:42:31.787Z,16.13
2023-05-12T18:44:58.541Z,16.11
2023-05-12T18:47:25.272Z,16.15
2023-05-12T18:49:54.307Z,16.05
2023-05-12T18:52:21.465Z,15.74
2023-05-12T18:54:53.448Z,15.98
2023-05-12T18:57:20.433Z,15.94
2023-05-12T18:59:47.041Z,16.03
2023-05-12T19:02:17.672Z,16.07
2023-05-12T19:04:47.294Z,15.98
2023-05-12T19:07:15.625Z,16.10
2023-05-12T19:09:45.586Z,16.00
2023-05-12T19:12:12.470Z,16.08
2023-05-12T19:14:43.225Z,15.79
2023-05-12T19:17:10.659Z,15.71
2023-05-12T19:19:38.459Z,15.94
2023-05-12T19:22:06.466Z,15.80
2023-05-12T19:24:34.018Z,15.74
2023-05-12T19:27:10.206Z,15.48
2023-05-12T19:29:44.527Z,15.48
2023-05-12T19:32:12.309Z,15.67
2023-05-12T19:34:42.293Z,15.59
2023-05-12T19:37:09.157Z,15.47
2023-05-12T19:39:35.913Z,15.48
2023-05-12T19:42:11.111Z,15.00
2023-05-12T19:44:40.100Z,15.39
2023-05-12T19:47:09.962Z,15.39
2023-05-12T19:49:39.722Z,15.39
2023-05-12T19:52:06.686Z,15.37
2023-05-12T19:54:33.745Z,15.34
2023-05-12T19:57:02.508Z,15.29
2023-05-12T19:59:29.316Z,15.29
2023-05-12T20:01:56.012Z,15.34
2023-05-12T20:04:23.495Z,15.01
2023-05-12T20:06:52.203Z,15.38
2023-05-12T20:09:21.501Z,15.31
2023-05-12T20:11:51.791Z,15.24
2023-05-12T20:14:18.483Z,15.17
2023-05-12T20:16:45.421Z,15.25
2023-05-12T20:19:14.196Z,15.23
2023-05-12T20:21:41.743Z,15.24
2023-05-12T20:24:08.583Z,15.30
2023-05-12T20:26:39.771Z,15.30
2023-05-12T20:29:09.981Z,15.28
2023-05-12T20:31:36.861Z,15.22
2023-05-12T20:34:03.553Z,15.06
2023-05-12T20:36:30.583Z,14.99
2023-05-12T20:38:58.128Z,14.97
2023-05-12T20:41:24.713Z,14.75
2023-05-12T20:43:51.346Z,14.95
2023-05-12T20:46:18.180Z,14.94
2023-05-12T20:48:46.994Z,14.94
2023-05-12T20:51:13.776Z,14.92
2023-05-12T20:53:42.770Z,14.89
2023-05-12T20:56:10.472Z,14.91
2023-05-12T20:58:37.544Z,14.89
2023-05-12T21:01:06.869Z,14.89
2023-05-12T21:03:43.752Z,14.89
2023-05-12T21:06:14.145Z,14.90
2023-05-12T21:08:40.793Z,14.90
2023-05-12T21:11:17.076Z,14.83
2023-05-12T21:13:44.830Z,14.80
2023-05-12T21:16:11.530Z,14.77
2023-05-12T21:18:44.188Z,14.73
2023-05-12T21:21:11.999Z,14.72
2023-05-12T21:23:38.834Z,14.71
2023-05-12T21:26:06.470Z,14.38
2023-05-12T21:28:33.260Z,14.83
2023-05-12T21:30:59.850Z,14.67
2023-05-12T21:33:26.627Z,14.59
2023-05-12T21:35:53.526Z,14.64
2023-05-12T21:38:29.362Z,14.51
2023-05-12T21:40:56.564Z,14.77
2023-05-12T21:43:23.691Z,14.75
2023-05-12T21:45:50.624Z,14.82
2023-05-12T21:48:20.084Z,14.73
2023-05-12T21:50:56.550Z,14.61
2023-05-12T21:53:23.430Z,14.51
2023-05-12T21:55:50.090Z,14.43
2023-05-12T21:58:24.276Z,14.29
2023-05-12T22:00:51.383Z,14.58
2023-05-12T22:03:20.415Z,14.66
2023-05-12T22:05:50.276Z,14.56
2023-05-12T22:08:17.029Z,14.45
2023-05-12T22:10:47.052Z,14.48
2023-05-12T22:13:14.048Z,14.53
2023-05-12T22:15:41.400Z,14.38
2023-05-12T22:18:08.171Z,14.36
2023-05-12T22:20:39.867Z,14.03
2023-05-12T22:23:06.802Z,14.52
2023-05-12T22:25:33.373Z,14.37
2023-05-12T22:28:07.172Z,14.26
2023-05-12T22:30:34.910Z,14.21
2023-05-12T22:33:03.567Z,14.13
2023-05-12T22:35:30.482Z,14.05
2023-05-12T22:38:00.537Z,14.12
2023-05-12T22:40:28.147Z,14.16
2023-05-12T22:43:02.059Z,13.89
2023-05-12T22:45:37.365Z,13.85
2023-05-12T22:48:08.176Z,14.18
2023-05-12T22:50:34.775Z,14.11
2023-05-12T22:53:02.145Z,14.03
2023-05-12T22:55:33.475Z,13.62
2023-05-12T22:58:00.916Z,13.93
2023-05-12T23:00:35.630Z,13.37
2023-05-12T23:03:05.349Z,13.88
2023-05-12T23:05:32.076Z,13.55
2023-05-12T23:08:08.998Z,13.45
2023-05-12T23:10:44.492Z,13.44
2023-05-12T23:13:20.786Z,13.70
2023-05-12T23:15:52.105Z,13.74
2023-05-12T23:18:24.036Z,13.74
2023-05-12T23:20:51.579Z,13.76
2023-05-12T23:23:22.373Z,13.76
2023-05-12T23:25:57.003Z,13.76
2023-05-12T23:28:28.523Z,13.74
2023-05-12T23:30:55.199Z,13.77
2023-05-12T23:33:27.259Z,13.89
2023-05-12T23:35:54.161Z,13.92
2023-05-12T23:38:29.185Z,13.85
2023-05-12T23:40:56.154Z,13.86
2023-05-12T23:43:24.032Z,13.59
2023-05-12T23:45:53.886Z,13.89
2023-05-12T23:48:20.480Z,13.60
2023-05-12T23:51:01.474Z,13.83
2023-05-12T23:53:35.568Z,13.80
2023-05-12T23:56:10.370Z,13.75
2023-05-12T23:58:45.531Z,13.74
